AFL1218 URWW-UWKD
Flight info
| Callsign | AFL1218 |
|---|---|
| Flight time | 1h 28m |
| Altitude | 35000 |
| Route | RODUN R807 UROBO P135 DAFOS T789 |
| Aircraft | A320/M-SDE3FGHIRWY/LB1 |
Departure
| Time | 2026-05-07 17:46 |
|---|---|
| Airport | Volgograd International Airport (URWW) |
Arrival
| Time | 2026-05-07 19:14 |
|---|---|
| Airport | Kazan International Airport (UWKD) |
| Time | Latitude | Longitude | Altitude | Speed | Heading |
|---|---|---|---|---|---|
| 2026-05-07 16:42 | 48.79092 | 44.35558 | 486 ft | 0 kts | 340° |
| 2026-05-07 17:24 | 48.79082 | 44.35564 | 479 ft | 2 kts | 338° |
| 2026-05-07 17:24 | 48.79067 | 44.35573 | 483 ft | 2 kts | 337° |
| 2026-05-07 17:24 | 48.79052 | 44.35583 | 482 ft | 2 kts | 326° |
| 2026-05-07 17:24 | 48.79041 | 44.35601 | 486 ft | 2 kts | 256° |
| 2026-05-07 17:25 | 48.79043 | 44.35613 | 488 ft | 0 kts | 250° |
| 2026-05-07 17:28 | 48.79043 | 44.35611 | 486 ft | 2 kts | 250° |
| 2026-05-07 17:29 | 48.79039 | 44.35593 | 478 ft | 3 kts | 250° |
| 2026-05-07 17:29 | 48.79021 | 44.35523 | 480 ft | 11 kts | 249° |
| 2026-05-07 17:29 | 48.78992 | 44.35403 | 480 ft | 9 kts | 249° |
| 2026-05-07 17:29 | 48.78971 | 44.35324 | 480 ft | 7 kts | 248° |
| 2026-05-07 17:30 | 48.78956 | 44.35261 | 482 ft | 4 kts | 250° |
| 2026-05-07 17:30 | 48.78951 | 44.35242 | 482 ft | 0 kts | 250° |
| 2026-05-07 17:30 | 48.78942 | 44.35201 | 484 ft | 9 kts | 250° |
| 2026-05-07 17:30 | 48.78897 | 44.35113 | 478 ft | 14 kts | 193° |
| 2026-05-07 17:31 | 48.78807 | 44.35148 | 483 ft | 10 kts | 162° |
| 2026-05-07 17:31 | 48.78793 | 44.35155 | 484 ft | 0 kts | 162° |
| 2026-05-07 17:31 | 48.78784 | 44.35160 | 484 ft | 6 kts | 161° |
| 2026-05-07 17:31 | 48.78746 | 44.35179 | 481 ft | 0 kts | 161° |
| 2026-05-07 17:36 | 48.78744 | 44.35180 | 481 ft | 2 kts | 161° |
| 2026-05-07 17:36 | 48.78702 | 44.35201 | 465 ft | 7 kts | 161° |
| 2026-05-07 17:36 | 48.78687 | 44.35209 | 485 ft | 0 kts | 161° |
| 2026-05-07 17:44 | 48.78652 | 44.35227 | 481 ft | 12 kts | 161° |
| 2026-05-07 17:44 | 48.78573 | 44.35261 | 479 ft | 7 kts | 197° |
| 2026-05-07 17:44 | 48.78551 | 44.35215 | 478 ft | 0 kts | 244° |
| 2026-05-07 17:45 | 48.78551 | 44.35214 | 478 ft | 1 kts | 244° |
| 2026-05-07 17:45 | 48.78453 | 44.34904 | 478 ft | 71 kts | 244° |
| 2026-05-07 17:45 | 48.78145 | 44.33931 | 472 ft | 132 kts | 244° |
| 2026-05-07 17:46 | 48.77679 | 44.32457 | 598 ft | 167 kts | 244° |
| 2026-05-07 17:46 | 48.77175 | 44.30893 | 1306 ft | 168 kts | 246° |
| 2026-05-07 17:46 | 48.76652 | 44.29274 | 1893 ft | 178 kts | 247° |
| 2026-05-07 17:46 | 48.76079 | 44.27470 | 2182 ft | 200 kts | 247° |
| 2026-05-07 17:47 | 48.75449 | 44.25454 | 2479 ft | 224 kts | 247° |
| 2026-05-07 17:47 | 48.74749 | 44.23194 | 2888 ft | 248 kts | 250° |
| 2026-05-07 17:47 | 48.74543 | 44.20590 | 3494 ft | 255 kts | 287° |
| 2026-05-07 17:47 | 48.75434 | 44.18292 | 4287 ft | 260 kts | 320° |
| 2026-05-07 17:48 | 48.77071 | 44.17219 | 5116 ft | 262 kts | 355° |
| 2026-05-07 17:48 | 48.78817 | 44.17778 | 5959 ft | 267 kts | 29° |
| 2026-05-07 17:48 | 48.80262 | 44.19545 | 6891 ft | 268 kts | 43° |
| 2026-05-07 17:48 | 48.81582 | 44.21544 | 7786 ft | 269 kts | 43° |
| 2026-05-07 17:49 | 48.82071 | 44.22285 | 8103 ft | 270 kts | 43° |
| 2026-05-07 17:49 | 48.83406 | 44.24307 | 8966 ft | 273 kts | 43° |
| 2026-05-07 17:49 | 48.84756 | 44.26350 | 9807 ft | 276 kts | 43° |
| 2026-05-07 17:49 | 48.86197 | 44.28310 | 10399 ft | 286 kts | 36° |
| 2026-05-07 17:50 | 48.87870 | 44.30161 | 10631 ft | 309 kts | 33° |
| 2026-05-07 17:50 | 48.89706 | 44.32005 | 11093 ft | 321 kts | 32° |
| 2026-05-07 17:50 | 48.91597 | 44.33859 | 11790 ft | 325 kts | 32° |
| 2026-05-07 17:50 | 48.93506 | 44.35748 | 12533 ft | 328 kts | 32° |
| 2026-05-07 17:51 | 48.95417 | 44.37675 | 13267 ft | 331 kts | 33° |
| 2026-05-07 17:51 | 48.97344 | 44.39656 | 13967 ft | 334 kts | 33° |
| 2026-05-07 17:51 | 48.99271 | 44.41665 | 14590 ft | 337 kts | 33° |
| 2026-05-07 17:51 | 49.01213 | 44.43706 | 15207 ft | 341 kts | 34° |
| 2026-05-07 17:52 | 49.03171 | 44.45772 | 15812 ft | 345 kts | 33° |
| 2026-05-07 17:52 | 49.05151 | 44.47859 | 16412 ft | 348 kts | 33° |
| 2026-05-07 17:52 | 49.07136 | 44.49954 | 16847 ft | 352 kts | 33° |
| 2026-05-07 17:52 | 49.08495 | 44.51389 | 16937 ft | 352 kts | 33° |
| 2026-05-07 17:53 | 49.11177 | 44.54219 | 17344 ft | 355 kts | 33° |
| 2026-05-07 17:53 | 49.12550 | 44.55669 | 17787 ft | 357 kts | 33° |
| 2026-05-07 17:53 | 49.15377 | 44.58256 | 18522 ft | 360 kts | 19° |
| 2026-05-07 17:53 | 49.17816 | 44.59148 | 19006 ft | 363 kts | 11° |
| 2026-05-07 17:54 | 49.19499 | 44.59605 | 19365 ft | 365 kts | 10° |
| 2026-05-07 17:54 | 49.22013 | 44.60268 | 19874 ft | 368 kts | 10° |
| 2026-05-07 17:54 | 49.24544 | 44.60931 | 20377 ft | 370 kts | 10° |
| 2026-05-07 17:54 | 49.27097 | 44.61600 | 20868 ft | 373 kts | 10° |
| 2026-05-07 17:55 | 49.29669 | 44.62275 | 21345 ft | 376 kts | 10° |
| 2026-05-07 17:55 | 49.32263 | 44.62976 | 21838 ft | 379 kts | 13° |
| 2026-05-07 17:55 | 49.34764 | 44.64284 | 22297 ft | 382 kts | 21° |
| 2026-05-07 17:55 | 49.37207 | 44.65782 | 22762 ft | 384 kts | 22° |
| 2026-05-07 17:56 | 49.39695 | 44.67316 | 23231 ft | 387 kts | 22° |
| 2026-05-07 17:56 | 49.42206 | 44.68870 | 23654 ft | 390 kts | 22° |
| 2026-05-07 17:56 | 49.44728 | 44.70431 | 24033 ft | 392 kts | 22° |
| 2026-05-07 17:56 | 49.47269 | 44.72002 | 24404 ft | 395 kts | 22° |
| 2026-05-07 17:57 | 49.49826 | 44.73590 | 24773 ft | 397 kts | 22° |
| 2026-05-07 17:57 | 49.52400 | 44.75191 | 25129 ft | 400 kts | 22° |
| 2026-05-07 17:57 | 49.54988 | 44.76799 | 25486 ft | 402 kts | 22° |
| 2026-05-07 17:57 | 49.57589 | 44.78416 | 25835 ft | 405 kts | 22° |
| 2026-05-07 17:58 | 49.60210 | 44.80046 | 26162 ft | 408 kts | 22° |
| 2026-05-07 17:58 | 49.62849 | 44.81688 | 26512 ft | 410 kts | 22° |
| 2026-05-07 17:58 | 49.65502 | 44.83340 | 26855 ft | 412 kts | 22° |
| 2026-05-07 17:58 | 49.68171 | 44.85001 | 27193 ft | 415 kts | 22° |
| 2026-05-07 17:59 | 49.70859 | 44.86674 | 27533 ft | 417 kts | 22° |
| 2026-05-07 17:59 | 49.73556 | 44.88354 | 27877 ft | 419 kts | 22° |
| 2026-05-07 17:59 | 49.76270 | 44.90051 | 28198 ft | 422 kts | 22° |
| 2026-05-07 17:59 | 49.79001 | 44.91764 | 28539 ft | 424 kts | 22° |
| 2026-05-07 18:00 | 49.81744 | 44.93486 | 28861 ft | 426 kts | 22° |
| 2026-05-07 18:00 | 49.84462 | 44.95191 | 29171 ft | 428 kts | 22° |
| 2026-05-07 18:00 | 49.87231 | 44.96930 | 29474 ft | 430 kts | 22° |
| 2026-05-07 18:00 | 49.90012 | 44.98680 | 29764 ft | 432 kts | 22° |
| 2026-05-07 18:01 | 49.92808 | 45.00445 | 30048 ft | 435 kts | 22° |
| 2026-05-07 18:01 | 49.95612 | 45.02218 | 30285 ft | 437 kts | 22° |
| 2026-05-07 18:01 | 49.98434 | 45.04002 | 30531 ft | 438 kts | 22° |
| 2026-05-07 18:01 | 50.01300 | 45.05816 | 30777 ft | 440 kts | 22° |
| 2026-05-07 18:02 | 50.07002 | 45.09430 | 31147 ft | 446 kts | 22° |
| 2026-05-07 18:02 | 50.09884 | 45.11268 | 31274 ft | 449 kts | 22° |
| 2026-05-07 18:02 | 50.12788 | 45.13114 | 31454 ft | 452 kts | 22° |
| 2026-05-07 18:03 | 50.15699 | 45.14963 | 31714 ft | 452 kts | 22° |
| 2026-05-07 18:03 | 50.18575 | 45.16796 | 32003 ft | 451 kts | 22° |
| 2026-05-07 18:03 | 50.21514 | 45.18677 | 32310 ft | 450 kts | 22° |
| 2026-05-07 18:03 | 50.24409 | 45.20535 | 32600 ft | 450 kts | 22° |
| 2026-05-07 18:04 | 50.27306 | 45.22397 | 32859 ft | 450 kts | 22° |
| 2026-05-07 18:04 | 50.33059 | 45.26097 | 32955 ft | 449 kts | 22° |
| 2026-05-07 18:05 | 50.38845 | 45.29814 | 32954 ft | 449 kts | 22° |
| 2026-05-07 18:05 | 50.44629 | 45.33546 | 32952 ft | 449 kts | 22° |
| 2026-05-07 18:06 | 50.50408 | 45.37285 | 32944 ft | 449 kts | 22° |
| 2026-05-07 18:06 | 50.56177 | 45.41025 | 32956 ft | 448 kts | 22° |
| 2026-05-07 18:07 | 50.61936 | 45.44759 | 32953 ft | 448 kts | 22° |
| 2026-05-07 18:07 | 50.67694 | 45.48519 | 32953 ft | 448 kts | 22° |
| 2026-05-07 18:08 | 50.73449 | 45.52280 | 32956 ft | 448 kts | 22° |
| 2026-05-07 18:08 | 50.79264 | 45.55838 | 32956 ft | 448 kts | 15° |
| 2026-05-07 18:09 | 50.85349 | 45.58038 | 32950 ft | 448 kts | 13° |
| 2026-05-07 18:09 | 50.91402 | 45.60207 | 32958 ft | 449 kts | 13° |
| 2026-05-07 18:10 | 50.97485 | 45.62392 | 32949 ft | 448 kts | 13° |
| 2026-05-07 18:10 | 51.03519 | 45.64828 | 32956 ft | 448 kts | 20° |
| 2026-05-07 18:11 | 51.09185 | 45.68959 | 32951 ft | 448 kts | 25° |
| 2026-05-07 18:11 | 51.14822 | 45.73191 | 32944 ft | 448 kts | 25° |
| 2026-05-07 18:12 | 51.20465 | 45.77420 | 32947 ft | 448 kts | 25° |
| 2026-05-07 18:12 | 51.26109 | 45.81671 | 32949 ft | 449 kts | 25° |
| 2026-05-07 18:13 | 51.31763 | 45.85945 | 32944 ft | 450 kts | 25° |
| 2026-05-07 18:13 | 51.37422 | 45.90230 | 32941 ft | 450 kts | 25° |
| 2026-05-07 18:14 | 51.43076 | 45.94525 | 32942 ft | 449 kts | 25° |
| 2026-05-07 18:14 | 51.48724 | 45.98831 | 32947 ft | 449 kts | 25° |
| 2026-05-07 18:15 | 51.54373 | 46.03152 | 32946 ft | 450 kts | 25° |
| 2026-05-07 18:15 | 51.60004 | 46.07552 | 32946 ft | 450 kts | 26° |
| 2026-05-07 18:16 | 51.65568 | 46.12162 | 32947 ft | 450 kts | 27° |
| 2026-05-07 18:16 | 51.71120 | 46.16815 | 32948 ft | 450 kts | 27° |
| 2026-05-07 18:17 | 51.76690 | 46.21443 | 32948 ft | 450 kts | 27° |
| 2026-05-07 18:17 | 51.82233 | 46.26033 | 32946 ft | 450 kts | 27° |
| 2026-05-07 18:18 | 51.87802 | 46.30657 | 32946 ft | 450 kts | 27° |
| 2026-05-07 18:18 | 51.93383 | 46.35310 | 32947 ft | 450 kts | 27° |
| 2026-05-07 18:19 | 51.98948 | 46.39965 | 32944 ft | 450 kts | 27° |
| 2026-05-07 18:19 | 52.04515 | 46.44631 | 32950 ft | 450 kts | 27° |
| 2026-05-07 18:20 | 52.10091 | 46.49318 | 32950 ft | 450 kts | 27° |
| 2026-05-07 18:20 | 52.14714 | 46.53221 | 32950 ft | 451 kts | 27° |
| 2026-05-07 18:21 | 52.21214 | 46.58727 | 32949 ft | 451 kts | 27° |
| 2026-05-07 18:21 | 52.26783 | 46.63455 | 32953 ft | 450 kts | 27° |
| 2026-05-07 18:22 | 52.32346 | 46.68187 | 32952 ft | 451 kts | 27° |
| 2026-05-07 18:22 | 52.37902 | 46.72931 | 32953 ft | 450 kts | 27° |
| 2026-05-07 18:23 | 52.43458 | 46.77684 | 32953 ft | 450 kts | 27° |
| 2026-05-07 18:23 | 52.49018 | 46.82452 | 32954 ft | 451 kts | 27° |
| 2026-05-07 18:24 | 52.54583 | 46.87246 | 32958 ft | 452 kts | 27° |
| 2026-05-07 18:24 | 52.60149 | 46.92058 | 32959 ft | 452 kts | 27° |
| 2026-05-07 18:25 | 52.65681 | 46.96852 | 32958 ft | 452 kts | 27° |
| 2026-05-07 18:25 | 52.71245 | 47.01679 | 32967 ft | 453 kts | 27° |
| 2026-05-07 18:26 | 52.76820 | 47.06537 | 32964 ft | 453 kts | 27° |
| 2026-05-07 18:26 | 52.82398 | 47.11405 | 32964 ft | 453 kts | 27° |
| 2026-05-07 18:27 | 52.87973 | 47.16282 | 32967 ft | 453 kts | 27° |
| 2026-05-07 18:27 | 52.93540 | 47.21174 | 32973 ft | 453 kts | 27° |
| 2026-05-07 18:28 | 52.99104 | 47.26087 | 32973 ft | 453 kts | 27° |
| 2026-05-07 18:28 | 53.04664 | 47.30999 | 32970 ft | 452 kts | 27° |
| 2026-05-07 18:29 | 53.10220 | 47.35930 | 32967 ft | 452 kts | 27° |
| 2026-05-07 18:29 | 53.15764 | 47.40864 | 32972 ft | 452 kts | 27° |
| 2026-05-07 18:30 | 53.21319 | 47.45814 | 32971 ft | 452 kts | 28° |
| 2026-05-07 18:30 | 53.26864 | 47.50769 | 32972 ft | 452 kts | 28° |
| 2026-05-07 18:31 | 53.32410 | 47.55745 | 32970 ft | 452 kts | 28° |
| 2026-05-07 18:31 | 53.37954 | 47.60739 | 32972 ft | 453 kts | 28° |
| 2026-05-07 18:32 | 53.43498 | 47.65744 | 32976 ft | 452 kts | 28° |
| 2026-05-07 18:32 | 53.49107 | 47.70527 | 32975 ft | 452 kts | 21° |
| 2026-05-07 18:33 | 53.54957 | 47.74381 | 32976 ft | 452 kts | 21° |
| 2026-05-07 18:33 | 53.60793 | 47.78220 | 32981 ft | 449 kts | 21° |
| 2026-05-07 18:34 | 53.66606 | 47.82077 | 32977 ft | 449 kts | 21° |
| 2026-05-07 18:34 | 53.71491 | 47.85001 | 32978 ft | 449 kts | 14° |
| 2026-05-07 18:35 | 53.77564 | 47.87465 | 32983 ft | 449 kts | 13° |
| 2026-05-07 18:35 | 53.83586 | 47.90219 | 32979 ft | 448 kts | 21° |
| 2026-05-07 18:36 | 53.89297 | 47.94463 | 32976 ft | 448 kts | 24° |
| 2026-05-07 18:36 | 53.95001 | 47.98757 | 32980 ft | 448 kts | 24° |
| 2026-05-07 18:37 | 54.00704 | 48.03057 | 32977 ft | 448 kts | 24° |
| 2026-05-07 18:37 | 54.06405 | 48.07372 | 32978 ft | 448 kts | 24° |
| 2026-05-07 18:38 | 54.12104 | 48.11701 | 32977 ft | 448 kts | 24° |
| 2026-05-07 18:38 | 54.14949 | 48.13868 | 32834 ft | 446 kts | 24° |
| 2026-05-07 18:38 | 54.17758 | 48.16012 | 32515 ft | 435 kts | 24° |
| 2026-05-07 18:38 | 54.20477 | 48.18091 | 32272 ft | 423 kts | 24° |
| 2026-05-07 18:39 | 54.23142 | 48.20128 | 31822 ft | 417 kts | 24° |
| 2026-05-07 18:39 | 54.25776 | 48.22148 | 31338 ft | 412 kts | 25° |
| 2026-05-07 18:39 | 54.28297 | 48.24446 | 30815 ft | 409 kts | 28° |
| 2026-05-07 18:39 | 54.30773 | 48.26817 | 30300 ft | 406 kts | 28° |
| 2026-05-07 18:40 | 54.33234 | 48.29173 | 29744 ft | 403 kts | 28° |
| 2026-05-07 18:40 | 54.35665 | 48.31509 | 29163 ft | 400 kts | 28° |
| 2026-05-07 18:40 | 54.38086 | 48.33838 | 28589 ft | 397 kts | 28° |
| 2026-05-07 18:40 | 54.40485 | 48.36148 | 28033 ft | 394 kts | 29° |
| 2026-05-07 18:41 | 54.42863 | 48.38440 | 27484 ft | 391 kts | 29° |
| 2026-05-07 18:41 | 54.45229 | 48.40717 | 26938 ft | 388 kts | 29° |
| 2026-05-07 18:41 | 54.47580 | 48.42984 | 26408 ft | 386 kts | 29° |
| 2026-05-07 18:41 | 54.49907 | 48.45231 | 25893 ft | 383 kts | 29° |
| 2026-05-07 18:42 | 54.52223 | 48.47472 | 25380 ft | 381 kts | 29° |
| 2026-05-07 18:42 | 54.54527 | 48.49709 | 24882 ft | 378 kts | 29° |
| 2026-05-07 18:42 | 54.56812 | 48.51932 | 24353 ft | 377 kts | 29° |
| 2026-05-07 18:42 | 54.59094 | 48.54153 | 24037 ft | 377 kts | 29° |
| 2026-05-07 18:43 | 54.61382 | 48.56382 | 23955 ft | 378 kts | 29° |
| 2026-05-07 18:43 | 54.63674 | 48.58614 | 23972 ft | 379 kts | 29° |
| 2026-05-07 18:43 | 54.65971 | 48.60849 | 23972 ft | 379 kts | 29° |
| 2026-05-07 18:43 | 54.68238 | 48.63059 | 23969 ft | 366 kts | 29° |
| 2026-05-07 18:44 | 54.70408 | 48.65181 | 23969 ft | 350 kts | 29° |
| 2026-05-07 18:44 | 54.72508 | 48.67240 | 23969 ft | 344 kts | 29° |
| 2026-05-07 18:44 | 54.74586 | 48.69277 | 23968 ft | 343 kts | 29° |
| 2026-05-07 18:44 | 54.76660 | 48.71311 | 23967 ft | 342 kts | 29° |
| 2026-05-07 18:45 | 54.78731 | 48.73342 | 23965 ft | 342 kts | 29° |
| 2026-05-07 18:45 | 54.80802 | 48.75378 | 23967 ft | 342 kts | 29° |
| 2026-05-07 18:45 | 54.82870 | 48.77414 | 23967 ft | 342 kts | 29° |
| 2026-05-07 18:45 | 54.84939 | 48.79458 | 23970 ft | 342 kts | 29° |
| 2026-05-07 18:46 | 54.87005 | 48.81501 | 23970 ft | 342 kts | 29° |
| 2026-05-07 18:46 | 54.89073 | 48.83547 | 23970 ft | 342 kts | 29° |
| 2026-05-07 18:46 | 54.91138 | 48.85594 | 23970 ft | 342 kts | 29° |
| 2026-05-07 18:46 | 54.93206 | 48.87653 | 23969 ft | 342 kts | 29° |
| 2026-05-07 18:47 | 54.95273 | 48.89716 | 23969 ft | 342 kts | 29° |
| 2026-05-07 18:47 | 54.97335 | 48.91772 | 23969 ft | 342 kts | 29° |
| 2026-05-07 18:47 | 54.99402 | 48.93830 | 23970 ft | 342 kts | 29° |
| 2026-05-07 18:47 | 55.01472 | 48.95891 | 23970 ft | 343 kts | 29° |
| 2026-05-07 18:48 | 55.03548 | 48.97960 | 23971 ft | 344 kts | 29° |
| 2026-05-07 18:48 | 55.05620 | 49.00032 | 23968 ft | 344 kts | 29° |
| 2026-05-07 18:48 | 55.07693 | 49.02111 | 23970 ft | 344 kts | 29° |
| 2026-05-07 18:48 | 55.09765 | 49.04198 | 23970 ft | 344 kts | 29° |
| 2026-05-07 18:49 | 55.11840 | 49.06292 | 23970 ft | 344 kts | 29° |
| 2026-05-07 18:49 | 55.13908 | 49.08375 | 23804 ft | 342 kts | 29° |
| 2026-05-07 18:49 | 55.15978 | 49.10377 | 23379 ft | 339 kts | 23° |
| 2026-05-07 18:49 | 55.18173 | 49.11679 | 22922 ft | 336 kts | 11° |
| 2026-05-07 18:50 | 55.20494 | 49.12395 | 22481 ft | 334 kts | 8° |
| 2026-05-07 18:50 | 55.22780 | 49.13049 | 22070 ft | 331 kts | 5° |
| 2026-05-07 18:50 | 55.25046 | 49.12841 | 21692 ft | 325 kts | 343° |
| 2026-05-07 18:50 | 55.27067 | 49.11164 | 21307 ft | 322 kts | 326° |
| 2026-05-07 18:51 | 55.28910 | 49.08946 | 20897 ft | 321 kts | 324° |
| 2026-05-07 18:51 | 55.30723 | 49.06687 | 20524 ft | 319 kts | 324° |
| 2026-05-07 18:51 | 55.32524 | 49.04434 | 20175 ft | 317 kts | 324° |
| 2026-05-07 18:51 | 55.34310 | 49.02200 | 19825 ft | 315 kts | 324° |
| 2026-05-07 18:52 | 55.36090 | 48.99984 | 19493 ft | 312 kts | 324° |
| 2026-05-07 18:52 | 55.37861 | 48.97792 | 19168 ft | 310 kts | 324° |
| 2026-05-07 18:52 | 55.39621 | 48.95615 | 18843 ft | 308 kts | 324° |
| 2026-05-07 18:52 | 55.41370 | 48.93454 | 18526 ft | 306 kts | 323° |
| 2026-05-07 18:53 | 55.43113 | 48.91337 | 18237 ft | 304 kts | 324° |
| 2026-05-07 18:53 | 55.44849 | 48.89236 | 17887 ft | 301 kts | 324° |
| 2026-05-07 18:53 | 55.46558 | 48.87114 | 17529 ft | 299 kts | 319° |
| 2026-05-07 18:53 | 55.47918 | 48.84392 | 17179 ft | 296 kts | 305° |
| 2026-05-07 18:54 | 55.49100 | 48.81429 | 16837 ft | 295 kts | 304° |
| 2026-05-07 18:54 | 55.50258 | 48.78457 | 16508 ft | 293 kts | 304° |
| 2026-05-07 18:54 | 55.51407 | 48.75495 | 16192 ft | 292 kts | 304° |
| 2026-05-07 18:54 | 55.52550 | 48.72540 | 15880 ft | 291 kts | 304° |
| 2026-05-07 18:55 | 55.53685 | 48.69595 | 15564 ft | 289 kts | 304° |
| 2026-05-07 18:55 | 55.54811 | 48.66665 | 15260 ft | 288 kts | 304° |
| 2026-05-07 18:55 | 55.55933 | 48.63738 | 14956 ft | 287 kts | 304° |
| 2026-05-07 18:55 | 55.57032 | 48.60863 | 14664 ft | 285 kts | 304° |
| 2026-05-07 18:56 | 55.58140 | 48.57958 | 14368 ft | 284 kts | 304° |
| 2026-05-07 18:56 | 55.59256 | 48.55021 | 14042 ft | 284 kts | 304° |
| 2026-05-07 18:56 | 55.60360 | 48.52124 | 13739 ft | 284 kts | 304° |
| 2026-05-07 18:56 | 55.61467 | 48.49246 | 13417 ft | 282 kts | 306° |
| 2026-05-07 18:57 | 55.62892 | 48.46937 | 13185 ft | 278 kts | 332° |
| 2026-05-07 18:57 | 55.64699 | 48.46076 | 13052 ft | 272 kts | 358° |
| 2026-05-07 18:57 | 55.66538 | 48.46826 | 12918 ft | 269 kts | 26° |
| 2026-05-07 18:57 | 55.67938 | 48.48970 | 12729 ft | 268 kts | 50° |
| 2026-05-07 18:58 | 55.69018 | 48.51667 | 12412 ft | 268 kts | 53° |
| 2026-05-07 18:58 | 55.70032 | 48.54381 | 12118 ft | 267 kts | 54° |
| 2026-05-07 18:58 | 55.71016 | 48.57160 | 11821 ft | 266 kts | 62° |
| 2026-05-07 18:58 | 55.71473 | 48.60329 | 11546 ft | 268 kts | 86° |
| 2026-05-07 18:59 | 55.71474 | 48.63629 | 11237 ft | 268 kts | 89° |
| 2026-05-07 18:59 | 55.71454 | 48.66928 | 10940 ft | 267 kts | 89° |
| 2026-05-07 18:59 | 55.71431 | 48.70216 | 10657 ft | 265 kts | 89° |
| 2026-05-07 18:59 | 55.71408 | 48.73479 | 10379 ft | 264 kts | 89° |
| 2026-05-07 19:00 | 55.71386 | 48.76728 | 10104 ft | 262 kts | 89° |
| 2026-05-07 19:00 | 55.71364 | 48.79958 | 9819 ft | 261 kts | 89° |
| 2026-05-07 19:00 | 55.71341 | 48.83168 | 9510 ft | 260 kts | 89° |
| 2026-05-07 19:00 | 55.71317 | 48.86358 | 9251 ft | 257 kts | 89° |
| 2026-05-07 19:01 | 55.71292 | 48.89499 | 8992 ft | 253 kts | 89° |
| 2026-05-07 19:01 | 55.71267 | 48.92612 | 8695 ft | 252 kts | 89° |
| 2026-05-07 19:01 | 55.71241 | 48.95710 | 8395 ft | 251 kts | 89° |
| 2026-05-07 19:01 | 55.71208 | 48.98804 | 8087 ft | 250 kts | 92° |
| 2026-05-07 19:02 | 55.70719 | 49.01745 | 7796 ft | 251 kts | 120° |
| 2026-05-07 19:02 | 55.69745 | 49.04329 | 7483 ft | 252 kts | 123° |
| 2026-05-07 19:02 | 55.68754 | 49.06880 | 7180 ft | 251 kts | 123° |
| 2026-05-07 19:02 | 55.67764 | 49.09424 | 6898 ft | 250 kts | 123° |
| 2026-05-07 19:03 | 55.66778 | 49.11957 | 6615 ft | 249 kts | 123° |
| 2026-05-07 19:03 | 55.65756 | 49.14434 | 6315 ft | 249 kts | 131° |
| 2026-05-07 19:03 | 55.64351 | 49.16166 | 6032 ft | 248 kts | 162° |
| 2026-05-07 19:03 | 55.62653 | 49.16349 | 5961 ft | 246 kts | 195° |
| 2026-05-07 19:04 | 55.61161 | 49.14963 | 5973 ft | 245 kts | 226° |
| 2026-05-07 19:04 | 55.60293 | 49.12439 | 5974 ft | 241 kts | 258° |
| 2026-05-07 19:04 | 55.60258 | 49.09524 | 5981 ft | 238 kts | 280° |
| 2026-05-07 19:04 | 55.60573 | 49.06641 | 5976 ft | 239 kts | 284° |
| 2026-05-07 19:05 | 55.60931 | 49.03772 | 5973 ft | 239 kts | 284° |
| 2026-05-07 19:05 | 55.61294 | 49.00904 | 5972 ft | 239 kts | 284° |
| 2026-05-07 19:05 | 55.61659 | 48.98030 | 5972 ft | 239 kts | 284° |
| 2026-05-07 19:05 | 55.62023 | 48.95158 | 5973 ft | 239 kts | 284° |
| 2026-05-07 19:06 | 55.62385 | 48.92289 | 5972 ft | 239 kts | 284° |
| 2026-05-07 19:06 | 55.63113 | 48.86546 | 5971 ft | 239 kts | 284° |
| 2026-05-07 19:06 | 55.63541 | 48.83754 | 5965 ft | 237 kts | 296° |
| 2026-05-07 19:07 | 55.64473 | 48.81499 | 5973 ft | 220 kts | 321° |
| 2026-05-07 19:07 | 55.65766 | 48.80250 | 5972 ft | 207 kts | 345° |
| 2026-05-07 19:07 | 55.67173 | 48.80045 | 5977 ft | 201 kts | 7° |
| 2026-05-07 19:07 | 55.68481 | 48.80805 | 5834 ft | 197 kts | 29° |
| 2026-05-07 19:08 | 55.69512 | 48.82384 | 5514 ft | 198 kts | 51° |
| 2026-05-07 19:08 | 55.70125 | 48.84570 | 5172 ft | 200 kts | 74° |
| 2026-05-07 19:08 | 55.70316 | 48.87015 | 4836 ft | 201 kts | 82° |
| 2026-05-07 19:08 | 55.70473 | 48.89477 | 4452 ft | 202 kts | 82° |
| 2026-05-07 19:09 | 55.70638 | 48.91962 | 4050 ft | 204 kts | 83° |
| 2026-05-07 19:09 | 55.70803 | 48.94450 | 3688 ft | 203 kts | 83° |
| 2026-05-07 19:09 | 55.70969 | 48.96926 | 3344 ft | 202 kts | 84° |
| 2026-05-07 19:09 | 55.71067 | 48.99394 | 2992 ft | 200 kts | 96° |
| 2026-05-07 19:10 | 55.70680 | 49.01708 | 2729 ft | 194 kts | 120° |
| 2026-05-07 19:10 | 55.69955 | 49.03655 | 2687 ft | 183 kts | 125° |
| 2026-05-07 19:10 | 55.69250 | 49.05496 | 2704 ft | 178 kts | 125° |
| 2026-05-07 19:10 | 55.68558 | 49.07300 | 2641 ft | 176 kts | 125° |
| 2026-05-07 19:11 | 55.67870 | 49.09092 | 2465 ft | 175 kts | 125° |
| 2026-05-07 19:11 | 55.67191 | 49.10859 | 2254 ft | 173 kts | 125° |
| 2026-05-07 19:11 | 55.66517 | 49.12611 | 2037 ft | 171 kts | 125° |
| 2026-05-07 19:11 | 55.65857 | 49.14325 | 1807 ft | 164 kts | 125° |
| 2026-05-07 19:12 | 55.65250 | 49.15902 | 1616 ft | 146 kts | 125° |
| 2026-05-07 19:12 | 55.64878 | 49.16868 | 1466 ft | 141 kts | 125° |
| 2026-05-07 19:12 | 55.64330 | 49.18288 | 1300 ft | 139 kts | 124° |
| 2026-05-07 19:12 | 55.63786 | 49.19697 | 1107 ft | 138 kts | 124° |
| 2026-05-07 19:13 | 55.63242 | 49.21109 | 923 ft | 139 kts | 124° |
| 2026-05-07 19:13 | 55.62697 | 49.22520 | 733 ft | 139 kts | 123° |
| 2026-05-07 19:13 | 55.62148 | 49.23941 | 561 ft | 140 kts | 123° |
| 2026-05-07 19:13 | 55.61603 | 49.25369 | 415 ft | 140 kts | 123° |
| 2026-05-07 19:14 | 55.61104 | 49.26641 | 409 ft | 106 kts | 125° |
| 2026-05-07 19:14 | 55.60784 | 49.27460 | 414 ft | 56 kts | 125° |
| 2026-05-07 19:14 | 55.60627 | 49.27864 | 410 ft | 36 kts | 124° |
| 2026-05-07 19:14 | 55.60481 | 49.28242 | 406 ft | 39 kts | 123° |
| 2026-05-07 19:15 | 55.60389 | 49.28503 | 418 ft | 19 kts | 103° |
| 2026-05-07 19:15 | 55.60403 | 49.28593 | 410 ft | 9 kts | 40° |
| 2026-05-07 19:15 | 55.60472 | 49.28674 | 412 ft | 0 kts | 34° |
| 2026-05-07 19:16 | 55.60484 | 49.28689 | 412 ft | 1 kts | 34° |
| 2026-05-07 19:16 | 55.60510 | 49.28722 | 413 ft | 8 kts | 38° |
| 2026-05-07 19:17 | 55.60560 | 49.28783 | 410 ft | 9 kts | 36° |
| 2026-05-07 19:17 | 55.60582 | 49.28907 | 416 ft | 11 kts | 95° |
| 2026-05-07 19:17 | 55.60575 | 49.29055 | 416 ft | 11 kts | 90° |
| 2026-05-07 19:17 | 55.60614 | 49.29179 | 410 ft | 14 kts | 41° |
| 2026-05-07 19:18 | 55.60670 | 49.29241 | 412 ft | 5 kts | 53° |
| 2026-05-07 19:18 | 55.60681 | 49.29262 | 416 ft | 5 kts | 41° |
| 2026-05-07 19:18 | 55.60723 | 49.29316 | 416 ft | 10 kts | 35° |
| 2026-05-07 19:18 | 55.60791 | 49.29398 | 416 ft | 12 kts | 36° |
| 2026-05-07 19:19 | 55.60814 | 49.29484 | 416 ft | 8 kts | 90° |
| 2026-05-07 19:19 | 55.60846 | 49.29543 | 415 ft | 6 kts | 34° |
| 2026-05-07 19:19 | 55.60861 | 49.29562 | 409 ft | 0 kts | 35° |